Airport View

Enter AWOS ICAO identifier for current METAR.

ex. KFNL

KMKT 261056Z AUTO 14003KT 10SM CLR 15/13 A2999 RMK AO2 SLP152 T01500128

26 Jun 2019 11:50

Frequency: 118.175

Phone: 507-625-3726

Other Area AWOS: KACQ - KULM - KFBL - KOWA

TAF KMKT 260520Z 2606/2706 25005KT P6SM SKC FM261300 22005KT P6SM BKN150 FM261800 17008KT P6SM FEW050 BKN150